createdAt,value
2023-03-17T00:01:25.663Z,49.33
2023-03-17T00:03:55.343Z,49.33
2023-03-17T00:06:29.245Z,44.93
2023-03-17T00:08:57.607Z,46.33
2023-03-17T00:11:27.495Z,47.03
2023-03-17T00:13:55.783Z,43.77
2023-03-17T00:16:27.353Z,43.97
2023-03-17T00:18:58.144Z,46.33
2023-03-17T00:21:30.576Z,49.50
2023-03-17T00:23:59.489Z,45.27
2023-03-17T00:26:28.483Z,45.53
2023-03-17T00:28:56.858Z,45.40
2023-03-17T00:31:29.440Z,45.73
2023-03-17T00:33:59.162Z,44.30
2023-03-17T00:36:30.639Z,46.83
2023-03-17T00:38:59.228Z,49.50
2023-03-17T00:41:29.409Z,48.23
2023-03-17T00:43:57.644Z,47.60
2023-03-17T00:46:28.581Z,45.63
2023-03-17T00:48:58.405Z,46.50
2023-03-17T00:51:26.957Z,53.17
2023-03-17T00:53:54.943Z,57.43
2023-03-17T00:56:23.423Z,106.53
2023-03-17T00:58:51.545Z,79.57
2023-03-17T01:01:19.932Z,73.57
2023-03-17T01:03:48.243Z,59.97
2023-03-17T01:06:18.174Z,54.47
2023-03-17T01:08:46.561Z,57.03
2023-03-17T01:11:18.559Z,56.90
2023-03-17T01:13:46.906Z,52.20
2023-03-17T01:16:15.454Z,46.03
2023-03-17T01:18:43.727Z,41.73
2023-03-17T01:21:12.644Z,46.37
2023-03-17T01:23:42.232Z,42.03
2023-03-17T01:26:10.269Z,41.60
2023-03-17T01:28:38.364Z,40.07
2023-03-17T01:31:06.510Z,37.33
2023-03-17T01:33:35.131Z,36.10
2023-03-17T01:36:03.268Z,37.83
2023-03-17T01:38:31.295Z,36.90
2023-03-17T01:41:02.276Z,33.50
2023-03-17T01:43:31.531Z,35.93
2023-03-17T01:46:27.946Z,52.97
2023-03-17T01:49:17.020Z,53.13
2023-03-17T01:51:58.889Z,55.70
2023-03-17T01:54:31.559Z,51.13
2023-03-17T01:57:04.902Z,52.33
2023-03-17T01:59:36.755Z,48.60
2023-03-17T02:02:07.539Z,44.60
2023-03-17T02:04:36.255Z,42.43
2023-03-17T02:07:05.277Z,44.90
2023-03-17T02:09:35.136Z,46.13
2023-03-17T02:12:05.635Z,40.37
2023-03-17T02:14:36.384Z,38.00
2023-03-17T02:17:04.391Z,38.50
2023-03-17T02:19:35.298Z,36.60
2023-03-17T02:22:04.644Z,36.73
2023-03-17T02:24:37.242Z,38.10
2023-03-17T02:27:12.896Z,37.27
2023-03-17T02:29:41.451Z,42.77
2023-03-17T02:32:11.050Z,42.67
2023-03-17T02:34:39.310Z,43.53
2023-03-17T02:37:09.077Z,48.83
2023-03-17T02:39:37.874Z,44.33
2023-03-17T02:42:07.507Z,44.27
2023-03-17T02:44:35.815Z,42.37
2023-03-17T02:47:04.364Z,40.90
2023-03-17T02:49:33.907Z,39.17
2023-03-17T02:52:02.596Z,39.77
2023-03-17T02:54:32.036Z,40.57
2023-03-17T02:57:00.374Z,35.37
2023-03-17T02:59:28.882Z,37.27
2023-03-17T03:01:57.181Z,38.17
2023-03-17T03:04:26.235Z,44.77
2023-03-17T03:06:54.996Z,41.57
2023-03-17T03:09:26.467Z,45.00
2023-03-17T03:11:55.990Z,45.37
2023-03-17T03:14:24.375Z,43.73
2023-03-17T03:16:53.469Z,45.60
2023-03-17T03:19:22.303Z,41.17
2023-03-17T03:21:51.839Z,44.60
2023-03-17T03:24:20.997Z,47.03
2023-03-17T03:26:49.015Z,44.40
2023-03-17T03:29:18.475Z,46.53
2023-03-17T03:31:48.118Z,42.73
2023-03-17T03:34:16.438Z,45.97
2023-03-17T03:36:44.652Z,45.93
2023-03-17T03:39:14.436Z,52.47
2023-03-17T03:41:42.744Z,47.03
2023-03-17T03:44:12.694Z,44.80
2023-03-17T03:46:42.071Z,43.20
2023-03-17T03:49:10.122Z,37.27
2023-03-17T03:51:38.090Z,36.97
2023-03-17T03:54:06.238Z,36.77
2023-03-17T03:56:34.550Z,34.93
2023-03-17T03:59:02.572Z,41.60
2023-03-17T04:01:32.065Z,40.10
2023-03-17T04:04:01.375Z,44.40
2023-03-17T04:06:29.401Z,48.40
2023-03-17T04:08:58.459Z,43.50
2023-03-17T04:11:29.325Z,48.27
2023-03-17T04:13:57.386Z,42.07
2023-03-17T04:16:26.233Z,39.40
2023-03-17T04:18:54.307Z,37.87
2023-03-17T04:21:23.659Z,39.17
2023-03-17T04:23:51.670Z,42.30
2023-03-17T04:26:19.868Z,40.27
2023-03-17T04:28:47.843Z,40.23
2023-03-17T04:31:16.249Z,37.53
2023-03-17T04:33:44.538Z,40.43
2023-03-17T04:36:19.250Z,35.07
2023-03-17T04:38:48.935Z,39.47
2023-03-17T04:41:17.039Z,41.97
2023-03-17T04:43:45.060Z,38.77
2023-03-17T04:46:15.604Z,44.40
2023-03-17T04:48:43.639Z,43.50
2023-03-17T04:51:12.141Z,39.10
2023-03-17T04:53:40.245Z,41.17
2023-03-17T04:56:10.033Z,42.03
2023-03-17T04:58:38.134Z,40.73
2023-03-17T05:01:06.409Z,42.13
2023-03-17T05:03:34.551Z,37.47
2023-03-17T05:06:03.686Z,46.40
2023-03-17T05:08:32.288Z,44.73
2023-03-17T05:11:01.206Z,42.33
2023-03-17T05:13:30.560Z,48.63
2023-03-17T05:16:00.795Z,43.60
2023-03-17T05:18:28.943Z,48.37
2023-03-17T05:21:00.259Z,44.13
2023-03-17T05:23:28.519Z,41.90
2023-03-17T05:25:56.846Z,42.30
2023-03-17T05:28:24.934Z,41.70
2023-03-17T05:30:57.929Z,38.50
2023-03-17T05:33:26.197Z,41.00
2023-03-17T05:35:54.167Z,47.83
2023-03-17T05:38:22.347Z,40.67
2023-03-17T05:40:51.551Z,36.80
2023-03-17T05:43:20.020Z,37.50
2023-03-17T05:45:50.455Z,41.73
2023-03-17T05:48:19.852Z,40.10
2023-03-17T05:50:48.107Z,45.97
2023-03-17T05:53:19.091Z,39.93
2023-03-17T05:55:48.080Z,42.43
2023-03-17T05:58:17.024Z,41.43
2023-03-17T06:00:45.274Z,41.33
2023-03-17T06:03:14.507Z,39.10
2023-03-17T06:05:43.989Z,43.97
2023-03-17T06:08:12.991Z,41.00
2023-03-17T06:10:41.265Z,41.30
2023-03-17T06:13:09.264Z,38.63
2023-03-17T06:15:37.747Z,39.20
2023-03-17T06:18:07.403Z,36.07
2023-03-17T06:20:36.611Z,42.30
2023-03-17T06:23:06.816Z,45.43
2023-03-17T06:25:35.734Z,39.97
2023-03-17T06:28:05.351Z,40.97
2023-03-17T06:30:34.603Z,39.67
2023-03-17T06:33:02.784Z,37.00
2023-03-17T06:35:32.093Z,41.57
2023-03-17T06:38:00.860Z,37.63
2023-03-17T06:40:30.476Z,42.17
2023-03-17T06:42:58.854Z,35.00
2023-03-17T06:45:27.111Z,36.90
2023-03-17T06:47:55.185Z,39.37
2023-03-17T06:50:23.223Z,38.03
2023-03-17T06:52:51.424Z,33.47
2023-03-17T06:55:19.618Z,30.77
2023-03-17T06:57:51.097Z,31.63
2023-03-17T07:00:20.890Z,35.10
2023-03-17T07:02:49.414Z,30.87
2023-03-17T07:05:18.005Z,34.93
2023-03-17T07:07:46.976Z,26.17
2023-03-17T07:10:15.737Z,27.97
2023-03-17T07:12:43.824Z,28.87
2023-03-17T07:15:14.109Z,30.00
2023-03-17T07:17:42.244Z,24.40
2023-03-17T07:20:12.074Z,25.03
2023-03-17T07:22:40.312Z,25.20
2023-03-17T07:25:10.950Z,27.07
2023-03-17T07:27:39.109Z,21.83
2023-03-17T07:30:08.493Z,23.17
2023-03-17T07:32:37.977Z,21.53
2023-03-17T07:35:07.311Z,23.63
2023-03-17T07:37:35.474Z,24.50
2023-03-17T07:40:03.586Z,24.60
2023-03-17T07:42:32.396Z,23.70
2023-03-17T07:45:02.423Z,26.70
2023-03-17T07:47:30.432Z,21.70
2023-03-17T07:49:59.780Z,26.10
2023-03-17T07:52:27.861Z,24.30
2023-03-17T07:54:56.112Z,26.60
2023-03-17T07:57:25.102Z,23.57
2023-03-17T07:59:53.111Z,20.90
2023-03-17T08:02:21.416Z,28.03
2023-03-17T08:04:50.165Z,30.27
2023-03-17T08:07:19.550Z,23.90
2023-03-17T08:09:47.806Z,24.80
2023-03-17T08:12:16.388Z,25.97
2023-03-17T08:14:44.510Z,24.37
2023-03-17T08:17:14.189Z,27.50
2023-03-17T08:19:42.397Z,22.60
2023-03-17T08:22:14.994Z,29.10
2023-03-17T08:24:44.614Z,24.83
2023-03-17T08:27:15.278Z,24.73
2023-03-17T08:29:45.840Z,25.57
2023-03-17T08:32:14.321Z,23.23
2023-03-17T08:34:44.321Z,22.37
2023-03-17T08:37:12.529Z,20.53
2023-03-17T08:39:40.574Z,21.17
2023-03-17T08:42:12.739Z,20.73
2023-03-17T08:44:44.148Z,19.33
2023-03-17T08:47:12.329Z,20.17
2023-03-17T08:49:40.340Z,19.03
2023-03-17T08:52:08.461Z,15.87
2023-03-17T08:54:36.939Z,14.50
2023-03-17T08:57:05.022Z,12.77
2023-03-17T08:59:34.353Z,12.20
2023-03-17T09:02:02.629Z,16.23
2023-03-17T09:04:30.663Z,13.60
2023-03-17T09:07:03.778Z,9.77
2023-03-17T09:09:32.668Z,12.77
2023-03-17T09:12:00.911Z,12.87
2023-03-17T09:14:30.547Z,12.47
2023-03-17T09:17:05.369Z,13.00
2023-03-17T09:19:33.834Z,12.60
2023-03-17T09:22:03.088Z,9.93
2023-03-17T09:24:31.180Z,16.53
2023-03-17T09:27:01.330Z,10.70
2023-03-17T09:29:29.338Z,10.77
2023-03-17T09:31:57.296Z,15.50
2023-03-17T09:34:26.746Z,12.83
2023-03-17T09:36:55.635Z,11.60
2023-03-17T09:39:24.201Z,16.27
2023-03-17T09:42:08.119Z,9.40
2023-03-17T09:44:54.499Z,11.13
2023-03-17T09:47:51.766Z,10.63
2023-03-17T09:50:26.161Z,10.50
2023-03-17T09:53:03.436Z,9.40
2023-03-17T09:55:35.134Z,9.97
2023-03-17T09:58:04.694Z,12.53
2023-03-17T10:00:33.463Z,9.67
2023-03-17T10:03:02.219Z,9.40
2023-03-17T10:05:34.581Z,10.87
2023-03-17T10:08:22.839Z,10.90
2023-03-17T10:11:04.106Z,10.37
2023-03-17T10:13:52.232Z,8.47
2023-03-17T10:16:23.170Z,9.37
2023-03-17T10:18:55.250Z,8.37
2023-03-17T10:21:29.783Z,8.73
2023-03-17T10:23:59.291Z,7.77
2023-03-17T10:26:31.917Z,7.63
2023-03-17T10:29:04.948Z,6.60
2023-03-17T10:31:35.452Z,7.67
2023-03-17T10:34:14.844Z,5.13
2023-03-17T10:36:48.439Z,9.23
2023-03-17T10:39:19.716Z,7.53
2023-03-17T10:41:56.989Z,7.17
2023-03-17T10:44:38.976Z,7.93
2023-03-17T10:47:08.054Z,8.33
2023-03-17T10:49:37.849Z,7.70
2023-03-17T10:52:16.758Z,8.30
2023-03-17T10:54:49.110Z,10.47
2023-03-17T10:57:18.449Z,8.40
2023-03-17T10:59:53.169Z,8.43
2023-03-17T11:02:44.338Z,13.07
2023-03-17T11:05:21.178Z,8.67
2023-03-17T11:07:51.717Z,7.63
2023-03-17T11:10:23.251Z,6.77
2023-03-17T11:12:58.704Z,8.53
2023-03-17T11:15:33.734Z,7.47
2023-03-17T11:18:04.056Z,8.03
2023-03-17T11:20:45.227Z,8.03
2023-03-17T11:23:24.422Z,6.00
2023-03-17T11:26:03.060Z,7.83
2023-03-17T11:28:36.971Z,8.43
2023-03-17T11:31:13.104Z,7.13
2023-03-17T11:33:49.612Z,6.43
2023-03-17T11:36:37.280Z,7.20
2023-03-17T11:39:13.785Z,6.33
2023-03-17T11:42:01.668Z,10.57
2023-03-17T11:44:57.531Z,7.53
2023-03-17T11:47:39.526Z,5.73
2023-03-17T11:50:20.545Z,7.10
2023-03-17T11:52:57.837Z,12.37
2023-03-17T11:55:32.562Z,10.47
2023-03-17T11:58:09.454Z,6.10
2023-03-17T12:00:42.752Z,6.37
2023-03-17T12:03:20.106Z,6.10
2023-03-17T12:05:54.560Z,6.00
2023-03-17T12:08:30.466Z,5.20
2023-03-17T12:11:02.873Z,6.73
2023-03-17T12:13:40.147Z,8.97
2023-03-17T12:16:15.576Z,5.63
2023-03-17T12:18:55.737Z,5.50
2023-03-17T12:21:33.096Z,5.30
2023-03-17T12:24:05.052Z,6.83
2023-03-17T12:26:39.722Z,6.43
2023-03-17T12:29:26.058Z,5.53
2023-03-17T12:32:01.214Z,4.77
2023-03-17T12:34:37.738Z,5.17
2023-03-17T12:37:05.987Z,6.23
2023-03-17T12:39:36.237Z,6.53
2023-03-17T12:42:27.673Z,9.13
2023-03-17T12:45:22.394Z,5.83
2023-03-17T12:48:05.630Z,4.90
2023-03-17T12:50:51.560Z,5.43
2023-03-17T12:53:27.389Z,6.53
2023-03-17T12:55:59.999Z,6.43
2023-03-17T12:58:34.928Z,8.73
2023-03-17T13:01:10.210Z,9.20
2023-03-17T13:03:46.705Z,9.17
2023-03-17T13:06:22.453Z,6.47
2023-03-17T13:08:52.714Z,5.40
2023-03-17T13:11:30.782Z,7.00
2023-03-17T13:14:15.409Z,6.67
2023-03-17T13:16:46.855Z,5.67
2023-03-17T13:19:22.845Z,6.77
2023-03-17T13:21:55.701Z,7.23
2023-03-17T13:24:48.030Z,12.10
2023-03-17T13:27:43.905Z,5.40
2023-03-17T13:30:53.269Z,6.50
2023-03-17T13:33:24.511Z,4.90
2023-03-17T13:36:20.666Z,4.40
2023-03-17T13:39:19.201Z,9.83
2023-03-17T13:42:19.142Z,9.50
2023-03-17T13:45:20.894Z,8.10
2023-03-17T13:47:55.213Z,8.23
2023-03-17T13:50:26.072Z,7.40
2023-03-17T13:52:57.880Z,8.33
2023-03-17T13:55:39.024Z,9.47
2023-03-17T13:58:34.536Z,7.17
2023-03-17T14:01:09.063Z,6.17
2023-03-17T14:03:54.085Z,6.67
2023-03-17T14:06:27.982Z,6.10
2023-03-17T14:09:01.573Z,6.23
2023-03-17T14:11:34.959Z,4.93
2023-03-17T14:14:32.520Z,5.70
2023-03-17T14:17:10.713Z,7.37
2023-03-17T14:19:41.921Z,8.93
2023-03-17T14:22:32.172Z,5.40
2023-03-17T14:25:08.303Z,6.47
2023-03-17T14:27:37.866Z,8.10
2023-03-17T14:30:10.408Z,7.80
2023-03-17T14:32:38.565Z,8.07
2023-03-17T14:35:14.544Z,6.30
2023-03-17T14:37:42.546Z,6.70
2023-03-17T14:40:22.534Z,6.33
2023-03-17T14:42:50.879Z,5.90
2023-03-17T14:45:27.349Z,6.23
2023-03-17T14:47:55.556Z,6.57
2023-03-17T14:50:28.472Z,5.57
2023-03-17T14:53:00.890Z,5.67
2023-03-17T14:55:35.710Z,7.30
2023-03-17T14:58:10.181Z,7.43
2023-03-17T15:00:44.784Z,5.23
2023-03-17T15:03:19.652Z,6.30
2023-03-17T15:05:50.408Z,11.33
2023-03-17T15:08:50.706Z,5.93
2023-03-17T15:11:24.587Z,7.93
2023-03-17T15:13:57.944Z,9.47
2023-03-17T15:16:34.925Z,21.30
2023-03-17T15:19:19.279Z,6.97
2023-03-17T15:21:50.683Z,9.53
2023-03-17T15:24:35.168Z,7.90
2023-03-17T15:27:05.125Z,7.47
2023-03-17T15:29:33.324Z,4.70
2023-03-17T15:32:12.946Z,7.87
2023-03-17T15:34:41.529Z,3.57
2023-03-17T15:37:19.246Z,9.37
2023-03-17T15:39:48.658Z,5.57
2023-03-17T15:42:21.420Z,5.70
2023-03-17T15:44:49.418Z,7.83
2023-03-17T15:47:19.870Z,6.47
2023-03-17T15:49:49.424Z,4.93
2023-03-17T15:52:24.836Z,10.13
2023-03-17T15:54:56.619Z,9.67
2023-03-17T15:57:25.639Z,8.27
2023-03-17T15:59:53.663Z,6.67
2023-03-17T16:02:27.459Z,6.57
2023-03-17T16:04:57.808Z,11.17
2023-03-17T16:07:27.404Z,4.57
2023-03-17T16:09:55.463Z,5.10
2023-03-17T16:12:23.804Z,5.57
2023-03-17T16:14:51.836Z,5.30
2023-03-17T16:17:26.890Z,9.27
2023-03-17T16:19:55.865Z,12.27
2023-03-17T16:22:38.467Z,9.43
2023-03-17T16:25:19.822Z,10.53
2023-03-17T16:27:48.129Z,7.70
2023-03-17T16:30:18.232Z,9.67
2023-03-17T16:32:46.704Z,6.23
2023-03-17T16:35:16.924Z,5.93
2023-03-17T16:37:46.645Z,6.70
2023-03-17T16:40:19.932Z,10.47
2023-03-17T16:42:48.359Z,7.73
2023-03-17T16:45:21.512Z,5.97
2023-03-17T16:47:49.871Z,6.57
2023-03-17T16:50:23.106Z,7.53
2023-03-17T16:52:52.597Z,8.37
2023-03-17T16:55:22.148Z,7.67
2023-03-17T16:57:53.831Z,9.27
2023-03-17T17:00:25.339Z,5.93
2023-03-17T17:02:53.848Z,6.63
2023-03-17T17:05:24.757Z,8.00
2023-03-17T17:07:56.269Z,7.10
2023-03-17T17:10:25.848Z,6.93
2023-03-17T17:12:55.099Z,10.17
2023-03-17T17:15:24.019Z,8.37
2023-03-17T17:17:55.781Z,9.17
2023-03-17T17:20:26.079Z,9.47
2023-03-17T17:22:56.009Z,9.33
2023-03-17T17:25:24.365Z,11.33
2023-03-17T17:27:52.516Z,8.60
2023-03-17T17:30:22.213Z,11.17
2023-03-17T17:32:53.631Z,10.03
2023-03-17T17:35:21.740Z,9.00
2023-03-17T17:37:49.761Z,9.13
2023-03-17T17:40:20.767Z,9.23
2023-03-17T17:42:50.925Z,12.60
2023-03-17T17:45:20.180Z,6.97
2023-03-17T17:47:48.655Z,7.60
2023-03-17T17:50:20.384Z,8.50
2023-03-17T17:52:48.490Z,10.47
2023-03-17T17:55:18.172Z,9.73
2023-03-17T17:57:46.233Z,9.90
2023-03-17T18:00:16.721Z,12.93
2023-03-17T18:02:53.615Z,14.83
2023-03-17T18:05:22.152Z,17.27
2023-03-17T18:07:52.990Z,16.13
2023-03-17T18:10:25.731Z,16.20
2023-03-17T18:12:55.555Z,16.10
2023-03-17T18:15:25.131Z,14.47
2023-03-17T18:17:53.394Z,15.33
2023-03-17T18:20:25.752Z,19.97
2023-03-17T18:22:56.804Z,15.70
2023-03-17T18:25:27.186Z,13.37
2023-03-17T18:28:00.969Z,15.03
2023-03-17T18:30:31.777Z,13.10
2023-03-17T18:33:05.016Z,13.40
2023-03-17T18:35:35.398Z,12.03
2023-03-17T18:38:03.624Z,12.67
2023-03-17T18:40:34.806Z,15.00
2023-03-17T18:43:03.034Z,14.30
2023-03-17T18:45:31.730Z,14.30
2023-03-17T18:47:59.696Z,15.33
2023-03-17T18:50:29.591Z,13.90
2023-03-17T18:53:01.083Z,15.50
2023-03-17T18:55:29.136Z,14.93
2023-03-17T18:57:59.943Z,14.63
2023-03-17T19:00:27.995Z,14.27
2023-03-17T19:02:56.719Z,13.27
2023-03-17T19:05:25.592Z,17.70
2023-03-17T19:07:56.182Z,14.80
2023-03-17T19:10:24.205Z,16.37
2023-03-17T19:12:53.313Z,17.67
2023-03-17T19:15:23.037Z,17.23
2023-03-17T19:17:51.293Z,15.70
2023-03-17T19:20:22.776Z,16.77
2023-03-17T19:22:53.854Z,14.67
2023-03-17T19:25:22.595Z,16.03
2023-03-17T19:27:50.888Z,16.53
2023-03-17T19:30:19.821Z,14.67
2023-03-17T19:32:51.110Z,16.73
2023-03-17T19:35:19.187Z,17.87
2023-03-17T19:37:56.494Z,16.80
2023-03-17T19:40:29.812Z,21.30
2023-03-17T19:43:00.235Z,22.77
2023-03-17T19:45:31.284Z,22.00
2023-03-17T19:48:03.600Z,24.53
2023-03-17T19:50:34.189Z,24.60
2023-03-17T19:53:02.260Z,19.67
2023-03-17T19:55:30.704Z,21.10
2023-03-17T19:57:58.881Z,17.70
2023-03-17T20:00:26.965Z,20.50
2023-03-17T20:02:57.337Z,17.53
2023-03-17T20:05:27.305Z,22.33
2023-03-17T20:07:58.810Z,18.20
2023-03-17T20:10:29.098Z,17.67
2023-03-17T20:12:58.748Z,19.90
2023-03-17T20:15:28.852Z,18.87
2023-03-17T20:17:58.412Z,16.73
2023-03-17T20:20:28.163Z,21.27
2023-03-17T20:22:59.240Z,19.33
2023-03-17T20:25:38.583Z,17.73
2023-03-17T20:28:07.032Z,19.00
2023-03-17T20:30:41.727Z,19.43
2023-03-17T20:33:20.398Z,18.33
2023-03-17T20:35:49.946Z,20.17
2023-03-17T20:38:22.788Z,20.70
2023-03-17T20:41:07.303Z,26.17
2023-03-17T20:43:41.742Z,28.53
2023-03-17T20:46:15.715Z,25.73
2023-03-17T20:48:44.343Z,24.17
2023-03-17T20:51:17.840Z,16.87
2023-03-17T20:53:47.541Z,17.03
2023-03-17T20:56:20.764Z,18.97
2023-03-17T20:58:49.137Z,18.23
2023-03-17T21:01:23.612Z,17.60
2023-03-17T21:03:52.563Z,18.20
2023-03-17T21:06:26.125Z,18.27
2023-03-17T21:09:00.137Z,20.03
2023-03-17T21:11:28.492Z,17.73
2023-03-17T21:13:56.732Z,18.60
2023-03-17T21:16:26.717Z,17.50
2023-03-17T21:18:55.140Z,18.40
2023-03-17T21:21:27.067Z,20.20
2023-03-17T21:23:56.235Z,18.07
2023-03-17T21:26:26.804Z,18.33
2023-03-17T21:28:56.904Z,19.97
2023-03-17T21:31:27.193Z,20.87
2023-03-17T21:33:58.407Z,21.83
2023-03-17T21:36:28.723Z,17.67
2023-03-17T21:38:59.142Z,17.87
2023-03-17T21:41:33.156Z,18.40
2023-03-17T21:44:01.532Z,22.20
2023-03-17T21:46:33.226Z,17.47
2023-03-17T21:49:03.475Z,18.10
2023-03-17T21:51:33.154Z,21.23
2023-03-17T21:54:04.186Z,17.13
2023-03-17T21:56:32.542Z,20.13
2023-03-17T21:59:00.607Z,19.30
2023-03-17T22:01:28.679Z,18.83
2023-03-17T22:03:57.201Z,20.00
2023-03-17T22:06:27.388Z,20.07
2023-03-17T22:08:57.097Z,21.13
2023-03-17T22:11:25.151Z,19.10
2023-03-17T22:13:53.524Z,21.70
2023-03-17T22:16:21.666Z,18.87
2023-03-17T22:18:49.863Z,20.37
2023-03-17T22:21:17.924Z,17.33
2023-03-17T22:23:46.230Z,18.30
2023-03-17T22:26:17.465Z,19.50
2023-03-17T22:28:46.720Z,21.17
2023-03-17T22:31:17.423Z,18.33
2023-03-17T22:33:46.250Z,19.10
2023-03-17T22:36:14.640Z,20.40
2023-03-17T22:38:42.859Z,18.20
2023-03-17T22:41:14.786Z,19.83
2023-03-17T22:43:44.609Z,21.13
2023-03-17T22:46:13.746Z,19.33
2023-03-17T22:48:41.904Z,18.37
2023-03-17T22:51:13.068Z,18.47
2023-03-17T22:53:41.428Z,21.90
2023-03-17T22:56:10.909Z,20.20
2023-03-17T22:58:39.147Z,16.53
2023-03-17T23:01:12.243Z,16.83
2023-03-17T23:03:42.425Z,19.50
2023-03-17T23:06:13.190Z,19.43
2023-03-17T23:08:43.051Z,20.20
2023-03-17T23:11:14.984Z,21.63
2023-03-17T23:13:43.066Z,20.00
2023-03-17T23:16:12.545Z,20.03
2023-03-17T23:18:40.902Z,20.70
2023-03-17T23:21:10.241Z,19.80
2023-03-17T23:23:39.122Z,19.60
2023-03-17T23:26:07.304Z,17.90
2023-03-17T23:28:35.301Z,16.90
2023-03-17T23:31:03.866Z,19.40
2023-03-17T23:33:33.983Z,18.10
2023-03-17T23:36:02.275Z,17.93
2023-03-17T23:38:34.604Z,16.40
2023-03-17T23:41:02.668Z,17.40
2023-03-17T23:43:30.859Z,17.43
2023-03-17T23:45:59.493Z,15.90
2023-03-17T23:48:28.157Z,15.93
2023-03-17T23:50:57.779Z,17.10
2023-03-17T23:53:26.515Z,18.50
2023-03-17T23:55:54.752Z,18.23
2023-03-17T23:58:23.506Z,16.90
